createdAt,value
2023-03-17T00:02:43.794Z,2.30
2023-03-17T00:06:45.506Z,2.10
2023-03-17T00:10:47.806Z,2.20
2023-03-17T00:14:49.436Z,1.27
2023-03-17T00:18:52.552Z,2.25
2023-03-17T00:22:57.578Z,1.98
2023-03-17T00:26:59.763Z,2.10
2023-03-17T00:31:06.308Z,2.13
2023-03-17T00:35:28.616Z,2.00
2023-03-17T00:39:30.218Z,2.37
2023-03-17T00:43:32.614Z,1.90
2023-03-17T00:47:34.265Z,2.67
2023-03-17T00:51:35.836Z,2.10
2023-03-17T00:55:37.407Z,1.98
2023-03-17T00:59:42.389Z,2.05
2023-03-17T01:03:45.988Z,2.20
2023-03-17T01:07:55.040Z,2.30
2023-03-17T01:11:56.788Z,1.60
2023-03-17T01:15:58.374Z,1.88
2023-03-17T01:20:02.979Z,2.00
2023-03-17T01:24:05.297Z,1.88
2023-03-17T01:28:07.395Z,1.50
2023-03-17T01:32:09.004Z,1.77
2023-03-17T01:36:11.238Z,2.35
2023-03-17T01:40:18.183Z,2.22
2023-03-17T01:44:19.856Z,1.95
2023-03-17T01:48:22.898Z,2.15
2023-03-17T01:52:24.584Z,1.92
2023-03-17T01:56:26.178Z,1.80
2023-03-17T02:00:28.357Z,2.00
2023-03-17T02:04:31.449Z,1.75
2023-03-17T02:08:33.229Z,2.10
2023-03-17T02:12:36.406Z,2.45
2023-03-17T02:16:38.147Z,2.00
2023-03-17T02:20:39.705Z,2.17
2023-03-17T02:24:46.065Z,2.10
2023-03-17T02:28:48.220Z,1.95
2023-03-17T02:32:50.702Z,1.83
2023-03-17T02:36:52.500Z,2.17
2023-03-17T02:40:54.307Z,2.00
2023-03-17T02:44:55.912Z,1.60
2023-03-17T02:48:57.773Z,1.52
2023-03-17T02:52:59.609Z,2.00
2023-03-17T02:57:01.247Z,1.90
2023-03-17T03:01:04.192Z,2.33
2023-03-17T03:05:08.780Z,2.30
2023-03-17T03:09:11.828Z,2.47
2023-03-17T03:13:13.604Z,1.98
2023-03-17T03:17:16.028Z,2.50
2023-03-17T03:21:17.597Z,1.88
2023-03-17T03:25:19.340Z,1.98
2023-03-17T03:29:21.163Z,2.05
2023-03-17T03:33:22.847Z,1.85
2023-03-17T03:37:24.534Z,1.88
2023-03-17T03:41:26.324Z,2.10
2023-03-17T03:45:28.313Z,2.03
2023-03-17T03:49:29.983Z,1.77
2023-03-17T03:53:31.622Z,2.20
2023-03-17T03:57:33.457Z,2.17
2023-03-17T04:01:35.582Z,2.10
2023-03-17T04:05:37.141Z,2.17
2023-03-17T04:09:39.375Z,2.20
2023-03-17T04:13:41.110Z,2.05
2023-03-17T04:17:43.082Z,2.35
2023-03-17T04:21:44.644Z,2.83
2023-03-17T04:25:46.959Z,2.30
2023-03-17T04:29:49.062Z,2.63
2023-03-17T04:33:50.607Z,2.63
2023-03-17T04:37:52.176Z,2.13
2023-03-17T04:41:53.775Z,2.30
2023-03-17T04:45:55.396Z,2.40
2023-03-17T04:49:57.030Z,2.60
2023-03-17T04:53:58.615Z,3.00
2023-03-17T04:58:00.234Z,2.35
2023-03-17T05:02:03.452Z,2.35
2023-03-17T05:06:07.190Z,2.17
2023-03-17T05:10:10.413Z,2.10
2023-03-17T05:14:11.986Z,2.83
2023-03-17T05:18:13.612Z,2.47
2023-03-17T05:22:15.652Z,2.55
2023-03-17T05:26:17.339Z,2.70
2023-03-17T05:30:19.371Z,2.35
2023-03-17T05:34:21.025Z,2.33
2023-03-17T05:38:23.065Z,2.33
2023-03-17T05:42:24.700Z,2.43
2023-03-17T05:46:26.796Z,4.00
2023-03-17T05:50:28.576Z,1.97
2023-03-17T05:54:30.346Z,2.70
2023-03-17T05:58:33.373Z,2.58
2023-03-17T06:02:35.787Z,2.33
2023-03-17T06:06:37.735Z,2.20
2023-03-17T06:10:39.452Z,2.45
2023-03-17T06:14:41.374Z,2.50
2023-03-17T06:18:43.387Z,2.40
2023-03-17T06:23:02.303Z,2.57
2023-03-17T06:27:04.822Z,3.05
2023-03-17T06:31:07.442Z,2.58
2023-03-17T06:35:13.374Z,3.92
2023-03-17T06:39:16.230Z,3.63
2023-03-17T06:43:20.368Z,3.07
2023-03-17T06:47:23.566Z,4.13
2023-03-17T06:51:27.387Z,4.03
2023-03-17T06:55:29.607Z,5.03
2023-03-17T06:59:31.445Z,5.32
2023-03-17T07:03:36.731Z,4.50
2023-03-17T07:07:39.614Z,3.60
2023-03-17T07:11:41.430Z,3.00
2023-03-17T07:15:45.444Z,2.88
2023-03-17T07:19:47.545Z,3.28
2023-03-17T07:23:49.238Z,3.85
2023-03-17T07:27:52.034Z,2.90
2023-03-17T07:31:53.952Z,3.00
2023-03-17T07:35:55.663Z,3.30
2023-03-17T07:39:57.356Z,2.80
2023-03-17T07:43:59.753Z,2.92
2023-03-17T07:48:03.006Z,3.20
2023-03-17T07:52:04.962Z,3.63
2023-03-17T07:56:07.072Z,3.17
2023-03-17T08:00:10.255Z,3.17
2023-03-17T08:04:15.026Z,3.08
2023-03-17T08:08:17.996Z,3.40
2023-03-17T08:12:20.301Z,3.03
2023-03-17T08:16:22.141Z,4.22
2023-03-17T08:20:24.686Z,3.20
2023-03-17T08:24:27.214Z,3.47
2023-03-17T08:28:29.828Z,3.30
2023-03-17T08:32:31.671Z,3.45
2023-03-17T08:36:33.996Z,3.80
2023-03-17T08:40:37.275Z,4.20
2023-03-17T08:44:38.931Z,3.60
2023-03-17T08:48:43.256Z,4.47
2023-03-17T08:52:45.867Z,3.50
2023-03-17T08:56:47.808Z,3.65
2023-03-17T09:00:49.758Z,4.90
2023-03-17T09:04:51.355Z,4.13
2023-03-17T09:08:56.646Z,4.57
2023-03-17T09:13:03.079Z,4.63
2023-03-17T09:17:05.943Z,4.45
2023-03-17T09:21:09.837Z,5.15
2023-03-17T09:29:13.622Z,3.92
2023-03-17T09:33:16.284Z,3.90
2023-03-17T09:37:18.693Z,4.13
2023-03-17T09:41:33.603Z,3.83
2023-03-17T09:45:40.603Z,3.95
2023-03-17T09:49:44.853Z,4.22
2023-03-17T09:54:00.236Z,5.82
2023-03-17T09:58:03.952Z,3.80
2023-03-17T10:02:23.975Z,6.50
2023-03-17T10:06:35.317Z,4.95
2023-03-17T10:10:54.254Z,5.20
2023-03-17T10:15:03.787Z,4.72
2023-03-17T10:19:14.892Z,4.57
2023-03-17T10:23:20.594Z,4.30
2023-03-17T10:27:23.283Z,4.65
2023-03-17T10:35:37.549Z,3.80
2023-03-17T10:39:52.421Z,4.28
2023-03-17T10:43:54.024Z,4.55
2023-03-17T10:47:58.325Z,4.15
2023-03-17T10:52:00.896Z,4.25
2023-03-17T11:00:16.726Z,4.15
2023-03-17T11:04:42.309Z,4.30
2023-03-17T11:08:52.280Z,4.40
2023-03-17T11:13:01.852Z,4.07
2023-03-17T11:17:16.572Z,3.75
2023-03-17T11:21:30.256Z,4.15
2023-03-17T11:25:38.053Z,3.92
2023-03-17T11:30:06.280Z,4.45
2023-03-17T11:34:25.669Z,4.65
2023-03-17T11:38:31.519Z,5.25
2023-03-17T11:42:42.019Z,4.57
2023-03-17T11:47:21.449Z,4.47
2023-03-17T11:51:30.510Z,4.20
2023-03-17T11:55:48.526Z,4.78
2023-03-17T12:00:28.254Z,4.53
2023-03-17T12:04:36.261Z,3.63
2023-03-17T12:08:46.918Z,4.00
2023-03-17T12:13:13.285Z,4.30
2023-03-17T12:17:22.149Z,3.97
2023-03-17T12:21:42.412Z,4.20
2023-03-17T12:25:55.140Z,4.35
2023-03-17T12:34:31.371Z,3.78
2023-03-17T12:38:43.422Z,3.00
2023-03-17T12:42:58.854Z,2.80
2023-03-17T12:47:27.425Z,2.65
2023-03-17T12:51:45.055Z,3.42
2023-03-17T12:55:51.268Z,2.97
2023-03-17T13:00:15.423Z,2.72
2023-03-17T13:05:12.482Z,3.70
2023-03-17T13:09:32.003Z,3.15
2023-03-17T13:13:55.865Z,3.22
2023-03-17T13:18:16.585Z,2.92
2023-03-17T13:22:24.423Z,3.22
2023-03-17T13:27:02.205Z,2.63
2023-03-17T13:31:43.768Z,2.15
2023-03-17T13:36:23.838Z,1.98
2023-03-17T13:40:52.610Z,2.58
2023-03-17T13:45:17.438Z,2.60
2023-03-17T13:49:22.458Z,2.38
2023-03-17T13:53:36.788Z,2.33
2023-03-17T13:58:11.345Z,2.30
2023-03-17T14:02:19.287Z,2.10
2023-03-17T14:11:57.988Z,1.45
2023-03-17T14:16:47.806Z,1.40
2023-03-17T14:21:01.620Z,1.27
2023-03-17T14:25:08.572Z,1.40
2023-03-17T14:29:17.394Z,1.80
2023-03-17T14:33:26.225Z,1.30
2023-03-17T14:37:28.524Z,1.30
2023-03-17T14:41:32.232Z,1.42
2023-03-17T14:45:58.823Z,1.40
2023-03-17T14:50:01.640Z,1.55
2023-03-17T14:54:06.305Z,1.25
2023-03-17T14:58:22.856Z,1.48
2023-03-17T15:02:37.859Z,1.30
2023-03-17T15:06:58.160Z,1.58
2023-03-17T15:11:02.311Z,1.08
2023-03-17T15:15:29.319Z,1.10
2023-03-17T15:19:42.397Z,1.20
2023-03-17T15:23:44.014Z,1.42
2023-03-17T15:27:47.124Z,1.37
2023-03-17T15:31:48.812Z,1.35
2023-03-17T15:35:50.867Z,1.02
2023-03-17T15:39:55.149Z,0.98
2023-03-17T15:43:58.301Z,1.60
2023-03-17T15:48:00.821Z,1.77
2023-03-17T15:52:03.165Z,1.20
2023-03-17T15:56:08.655Z,1.30
2023-03-17T16:00:19.333Z,1.30
2023-03-17T16:04:38.904Z,1.98
2023-03-17T16:08:40.564Z,2.05
2023-03-17T16:12:42.318Z,1.70
2023-03-17T16:16:46.338Z,2.17
2023-03-17T16:20:50.974Z,2.45
2023-03-17T16:24:52.983Z,2.03
2023-03-17T16:28:55.850Z,1.97
2023-03-17T16:33:00.990Z,3.13
2023-03-17T16:37:03.350Z,2.65
2023-03-17T16:41:15.262Z,2.80
2023-03-17T16:45:28.440Z,2.10
2023-03-17T16:49:30.079Z,3.22
2023-03-17T16:53:32.770Z,2.65
2023-03-17T16:57:34.436Z,3.00
2023-03-17T17:01:36.262Z,2.50
2023-03-17T17:05:39.284Z,2.30
2023-03-17T17:09:41.428Z,2.35
2023-03-17T17:13:45.499Z,2.80
2023-03-17T17:17:50.911Z,3.65
2023-03-17T17:21:52.495Z,4.38
2023-03-17T17:25:54.756Z,3.45
2023-03-17T17:29:56.526Z,2.78
2023-03-17T17:33:58.304Z,2.88
2023-03-17T17:38:02.450Z,2.60
2023-03-17T17:42:04.262Z,3.20
2023-03-17T17:46:12.591Z,2.65
2023-03-17T17:50:20.167Z,2.78
2023-03-17T17:54:22.132Z,2.63
2023-03-17T17:58:26.235Z,3.17
2023-03-17T18:02:28.177Z,2.75
2023-03-17T18:06:29.908Z,3.00
2023-03-17T18:10:32.095Z,2.35
2023-03-17T18:14:33.798Z,3.20
2023-03-17T18:18:38.180Z,5.20
2023-03-17T18:22:41.163Z,6.70
2023-03-17T18:26:42.883Z,4.53
2023-03-17T18:30:44.711Z,3.88
2023-03-17T18:34:47.833Z,3.72
2023-03-17T18:38:49.967Z,4.65
2023-03-17T18:42:51.609Z,4.10
2023-03-17T18:46:53.326Z,3.03
2023-03-17T18:50:55.250Z,3.27
2023-03-17T18:54:56.974Z,2.95
2023-03-17T18:58:59.642Z,3.47
2023-03-17T19:03:02.535Z,3.28
2023-03-17T19:11:07.954Z,2.75
2023-03-17T19:15:10.748Z,3.35
2023-03-17T19:23:14.131Z,3.30
2023-03-17T19:27:16.910Z,3.60
2023-03-17T19:31:18.669Z,3.47
2023-03-17T19:35:20.976Z,3.65
2023-03-17T19:39:22.617Z,5.15
2023-03-17T19:43:39.556Z,4.50
2023-03-17T19:47:42.499Z,4.45
2023-03-17T19:51:45.035Z,3.33
2023-03-17T19:55:47.183Z,3.57
2023-03-17T20:03:52.306Z,2.72
2023-03-17T20:07:53.870Z,3.70
2023-03-17T20:11:56.699Z,3.42
2023-03-17T20:15:58.618Z,3.80
2023-03-17T20:20:00.611Z,3.47
2023-03-17T20:24:02.852Z,3.60
2023-03-17T20:28:05.619Z,3.80
2023-03-17T20:32:09.003Z,3.60
2023-03-17T20:36:12.686Z,3.15
2023-03-17T20:40:15.312Z,3.65
2023-03-17T20:44:17.919Z,3.17
2023-03-17T20:48:20.269Z,2.88
2023-03-17T20:52:22.408Z,3.38
2023-03-17T20:56:26.580Z,3.03
2023-03-17T21:00:28.463Z,3.70
2023-03-17T21:04:30.081Z,2.80
2023-03-17T21:08:32.729Z,3.00
2023-03-17T21:12:34.402Z,3.00
2023-03-17T21:16:37.434Z,3.10
2023-03-17T21:20:39.241Z,2.83
2023-03-17T21:24:41.936Z,2.97
2023-03-17T21:28:44.346Z,3.00
2023-03-17T21:36:48.276Z,2.88
2023-03-17T21:40:49.923Z,3.17
2023-03-17T21:44:52.351Z,3.20
2023-03-17T21:48:54.201Z,2.72
2023-03-17T21:52:56.236Z,3.70
2023-03-17T21:56:58.974Z,3.47
2023-03-17T22:01:01.833Z,2.90
2023-03-17T22:05:05.031Z,2.90
2023-03-17T22:09:07.465Z,3.10
2023-03-17T22:13:09.106Z,2.75
2023-03-17T22:17:10.755Z,3.10
2023-03-17T22:21:12.970Z,2.65
2023-03-17T22:25:14.644Z,3.33
2023-03-17T22:29:16.407Z,2.65
2023-03-17T22:33:18.237Z,3.47
2023-03-17T22:37:20.244Z,3.92
2023-03-17T22:41:24.340Z,3.85
2023-03-17T22:45:26.507Z,3.88
2023-03-17T22:49:28.100Z,4.20
2023-03-17T22:53:29.711Z,4.05
2023-03-17T22:57:31.493Z,4.25
2023-03-17T23:01:33.376Z,5.40
2023-03-17T23:05:35.096Z,4.80
2023-03-17T23:09:38.581Z,5.07
2023-03-17T23:13:41.721Z,5.75
2023-03-17T23:17:43.289Z,4.88
2023-03-17T23:21:45.253Z,5.15
2023-03-17T23:25:47.165Z,4.90
2023-03-17T23:29:49.143Z,4.93
2023-03-17T23:33:51.392Z,5.03
2023-03-17T23:37:53.008Z,4.95
2023-03-17T23:41:54.785Z,5.00
2023-03-17T23:45:56.474Z,4.88
2023-03-17T23:49:58.134Z,5.13
2023-03-17T23:54:00.135Z,4.93
2023-03-17T23:58:01.771Z,5.33
